Time;durP1;ratioP1;P1;durP2;ratioP2;P2;SDS_P1;SDS_P2;PMS_P1;PMS_P2;Temp;Humidity;BMP_temperature;BMP_pressure;BME280_temperature;BME280_humidity;BME280_pressure;Samples;Min_cycle;Max_cycle;Signal;HPM_P1;HPM_P2
2021/12/09 00:01:28;;;;;;;9.68;4.43;;;3.60;99.90;;;;;;5071178;28;20036;-72
2021/12/09 00:03:57;;;;;;;8.60;4.13;;;3.50;99.90;;;;;;5053232;28;20504;-72
2021/12/09 00:06:27;;;;;;;12.18;4.55;;;3.60;99.90;;;;;;5051838;28;20043;-72
2021/12/09 00:09:04;;;;;;;9.98;4.55;;;3.50;99.90;;;;;;5054435;28;20094;-72
2021/12/09 00:11:30;;;;;;;8.25;4.10;;;3.60;99.90;;;;;;5053829;28;20037;-72
2021/12/09 00:13:56;;;;;;;10.88;4.45;;;3.60;99.90;;;;;;5054025;28;20047;-72
2021/12/09 00:16:21;;;;;;;7.57;4.00;;;3.60;99.90;;;;;;5054717;28;20433;-72
2021/12/09 00:18:47;;;;;;;8.70;4.40;;;3.60;99.90;;;;;;5052493;28;20036;-72
2021/12/09 00:21:14;;;;;;;8.45;4.05;;;3.60;99.90;;;;;;5068799;28;20036;-72
2021/12/09 00:23:40;;;;;;;9.68;4.53;;;3.60;99.90;;;;;;5052652;28;20040;-72
2021/12/09 00:26:06;;;;;;;10.13;5.57;;;3.60;99.90;;;;;;5055691;28;20062;-72
2021/12/09 00:28:32;;;;;;;9.55;4.53;;;3.60;99.90;;;;;;5052443;28;20040;-72
2021/12/09 00:30:57;;;;;;;9.35;4.75;;;3.50;99.90;;;;;;5070031;28;20402;-72
2021/12/09 00:33:23;;;;;;;11.85;4.63;;;3.50;99.90;;;;;;5053142;28;20128;-72
2021/12/09 00:35:57;;;;;;;9.48;4.57;;;3.50;99.90;;;;;;5087701;28;20435;-72
2021/12/09 00:38:39;;;;;;;10.15;4.82;;;3.70;99.90;;;;;;5070353;28;20063;-72
2021/12/09 00:41:08;;;;;;;9.35;4.40;;;3.70;99.90;;;;;;5048816;28;20036;-72
2021/12/09 00:43:35;;;;;;;8.05;4.75;;;3.70;99.90;;;;;;5052020;28;20040;-72
2021/12/09 00:46:01;;;;;;;8.98;5.10;;;3.70;99.90;;;;;;5053791;28;20076;-72
2021/12/09 00:48:27;;;;;;;10.60;4.65;;;3.70;99.90;;;;;;5051864;28;20493;-72
2021/12/09 00:50:54;;;;;;;9.93;4.32;;;3.70;99.90;;;;;;5054451;28;20036;-72
2021/12/09 00:53:20;;;;;;;10.63;5.13;;;3.70;99.90;;;;;;5071328;28;20059;-72
2021/12/09 00:55:46;;;;;;;10.30;4.15;;;3.60;99.90;;;;;;5053986;28;20040;-72
2021/12/09 00:58:11;;;;;;;10.52;4.70;;;3.70;99.90;;;;;;5053489;28;20457;-72
2021/12/09 01:00:37;;;;;;;13.15;4.75;;;3.80;99.90;;;;;;5068957;28;20044;-72
2021/12/09 01:03:02;;;;;;;10.63;5.00;;;3.90;99.90;;;;;;5052422;28;20473;-72
2021/12/09 01:05:28;;;;;;;11.43;5.45;;;3.80;99.90;;;;;;5053934;28;20036;-72
2021/12/09 01:07:55;;;;;;;11.32;5.10;;;3.70;99.90;;;;;;5071099;28;20135;-72
2021/12/09 01:10:21;;;;;;;11.65;5.20;;;3.60;99.90;;;;;;5050933;28;20058;-72
2021/12/09 01:12:47;;;;;;;11.43;5.75;;;3.80;99.90;;;;;;5054515;28;20105;-72
2021/12/09 01:15:16;;;;;;;12.00;5.07;;;3.80;99.90;;;;;;5069591;28;20036;-72
2021/12/09 01:17:43;;;;;;;10.43;4.30;;;3.80;99.90;;;;;;5070360;28;20448;-72
2021/12/09 01:20:10;;;;;;;9.07;4.45;;;3.80;99.90;;;;;;5054477;28;20044;-72
2021/12/09 01:22:41;;;;;;;12.55;4.82;;;3.80;99.90;;;;;;5070548;28;20095;-72
2021/12/09 01:25:11;;;;;;;12.15;5.00;;;3.60;99.90;;;;;;5053481;28;20040;-72
2021/12/09 01:27:41;;;;;;;10.65;6.07;;;3.70;99.90;;;;;;5052216;28;20067;-72
2021/12/09 01:30:12;;;;;;;11.32;5.50;;;3.50;99.90;;;;;;5087059;28;20500;-72
2021/12/09 01:32:42;;;;;;;10.88;5.30;;;3.50;99.90;;;;;;5067548;28;20436;-72
2021/12/09 01:35:09;;;;;;;12.77;5.82;;;3.40;99.90;;;;;;5069629;28;20056;-72
2021/12/09 01:37:35;;;;;;;12.02;5.38;;;3.40;99.90;;;;;;5052577;28;20449;-72
2021/12/09 01:40:03;;;;;;;12.10;5.55;;;3.30;99.90;;;;;;5070925;28;20044;-72
2021/12/09 01:42:29;;;;;;;11.10;5.60;;;3.30;99.90;;;;;;5069489;28;20041;-72
2021/12/09 01:44:54;;;;;;;10.50;5.40;;;3.30;99.90;;;;;;5054566;28;20397;-73
2021/12/09 01:47:20;;;;;;;10.13;5.70;;;3.40;99.90;;;;;;5051876;28;20134;-72
2021/12/09 01:49:46;;;;;;;9.60;5.38;;;3.40;99.90;;;;;;5068468;28;20123;-72
2021/12/09 01:52:11;;;;;;;10.73;5.28;;;3.40;99.90;;;;;;5069307;28;20044;-72
2021/12/09 01:54:37;;;;;;;10.82;5.38;;;3.30;99.90;;;;;;5052536;28;20045;-72
2021/12/09 01:57:05;;;;;;;9.10;5.70;;;3.30;99.90;;;;;;5051979;28;20507;-72
2021/12/09 01:59:30;;;;;;;11.43;5.32;;;3.30;99.90;;;;;;5051796;28;20036;-72
2021/12/09 02:01:56;;;;;;;13.13;6.10;;;3.20;99.90;;;;;;5074547;28;20161;-72
2021/12/09 02:04:22;;;;;;;10.13;5.97;;;3.20;99.90;;;;;;5056450;28;20397;-72
2021/12/09 02:06:48;;;;;;;11.13;5.97;;;3.20;99.90;;;;;;5056862;28;20040;-72
2021/12/09 02:09:15;;;;;;;13.85;5.78;;;3.10;99.90;;;;;;5073429;28;20046;-72
2021/12/09 02:11:42;;;;;;;11.77;5.80;;;3.10;99.90;;;;;;5073789;28;20090;-72
2021/12/09 02:14:08;;;;;;;11.90;5.97;;;3.10;99.90;;;;;;5073593;28;20042;-72
2021/12/09 02:16:34;;;;;;;14.60;6.38;;;3.10;99.90;;;;;;5073457;28;20500;-72
2021/12/09 02:19:01;;;;;;;10.75;5.70;;;3.10;99.90;;;;;;5074310;28;20033;-72
2021/12/09 02:21:30;;;;;;;15.82;6.45;;;3.10;99.90;;;;;;5054537;28;20037;-72
2021/12/09 02:24:00;;;;;;;11.18;5.40;;;3.10;99.90;;;;;;5074237;28;20492;-72
2021/12/09 02:26:36;;;;;;;11.80;6.43;;;3.10;99.90;;;;;;5056977;28;20032;-72
2021/12/09 02:29:04;;;;;;;11.77;6.10;;;3.10;99.90;;;;;;5074130;28;20048;-72
2021/12/09 02:31:31;;;;;;;13.32;6.40;;;3.00;99.90;;;;;;5073415;28;20044;-72
2021/12/09 02:33:57;;;;;;;14.23;6.03;;;3.10;99.90;;;;;;5057301;28;20116;-72
2021/12/09 02:36:23;;;;;;;10.73;6.05;;;3.30;99.90;;;;;;5072941;28;20128;-72
2021/12/09 02:38:50;;;;;;;11.48;5.95;;;3.40;99.90;;;;;;5074173;28;20064;-72
2021/12/09 02:41:22;;;;;;;12.98;6.43;;;3.30;99.90;;;;;;5072420;28;20082;-73
2021/12/09 02:43:51;;;;;;;10.35;5.97;;;3.20;99.90;;;;;;5074012;28;20056;-72
2021/12/09 02:46:17;;;;;;;12.32;6.45;;;3.20;99.90;;;;;;5073223;28;20128;-72
2021/12/09 02:48:45;;;;;;;11.73;6.00;;;3.20;99.90;;;;;;5054915;28;20036;-72
2021/12/09 02:51:12;;;;;;;12.05;6.22;;;3.00;99.90;;;;;;5054721;28;20040;-72
2021/12/09 02:53:38;;;;;;;11.30;6.15;;;3.00;99.90;;;;;;5073610;28;20093;-72
2021/12/09 02:56:04;;;;;;;12.57;6.63;;;3.00;99.90;;;;;;5056426;28;20444;-72
2021/12/09 02:58:30;;;;;;;12.80;6.55;;;3.00;99.90;;;;;;5052153;28;20025;-72
2021/12/09 03:01:14;;;;;;;13.77;7.10;;;3.00;99.90;;;;;;5052208;28;20166;-72
2021/12/09 03:03:53;;;;;;;14.05;6.22;;;3.10;99.90;;;;;;5051998;28;20047;-72
2021/12/09 03:06:22;;;;;;;10.60;5.65;;;3.10;99.90;;;;;;5053778;28;20040;-72
2021/12/09 03:08:49;;;;;;;11.63;6.32;;;3.20;99.90;;;;;;5068846;28;20508;-72
2021/12/09 03:11:21;;;;;;;11.52;6.00;;;3.10;99.90;;;;;;5049369;28;20465;-72
2021/12/09 03:13:49;;;;;;;10.90;6.32;;;3.00;99.90;;;;;;5071206;28;20052;-72
2021/12/09 03:16:15;;;;;;;13.40;6.82;;;3.00;99.90;;;;;;5053424;28;20036;-72
2021/12/09 03:18:51;;;;;;;12.30;7.28;;;3.00;99.90;;;;;;5054963;28;20068;-72
2021/12/09 03:21:18;;;;;;;9.75;6.22;;;2.90;99.90;;;;;;5054777;28;20047;-72
2021/12/09 03:23:44;;;;;;;12.48;6.30;;;2.90;99.90;;;;;;5072113;28;20036;-72
2021/12/09 03:26:10;;;;;;;12.55;6.70;;;2.90;99.90;;;;;;5069561;28;20504;-72
2021/12/09 03:28:36;;;;;;;11.60;6.32;;;2.90;99.90;;;;;;5053199;28;20532;-72
2021/12/09 03:31:02;;;;;;;11.95;8.00;;;2.80;99.90;;;;;;5048208;28;20174;-72
2021/12/09 03:33:27;;;;;;;12.10;6.80;;;2.80;99.90;;;;;;5050449;28;20036;-72
2021/12/09 03:36:05;;;;;;;9.80;6.18;;;2.80;99.90;;;;;;5070457;28;20036;-72
2021/12/09 03:38:32;;;;;;;13.75;6.80;;;2.80;99.90;;;;;;5063551;28;20036;-72
2021/12/09 03:40:58;;;;;;;12.88;6.60;;;2.80;99.90;;;;;;5054187;28;20075;-72
2021/12/09 03:43:25;;;;;;;12.48;7.15;;;2.70;99.90;;;;;;5071321;28;20086;-72
2021/12/09 03:45:54;;;;;;;13.95;8.00;;;2.80;99.90;;;;;;5071451;28;20037;-72
2021/12/09 03:48:22;;;;;;;13.93;7.47;;;2.80;99.90;;;;;;5070742;28;20043;-72
2021/12/09 03:50:47;;;;;;;12.93;7.10;;;2.80;99.90;;;;;;5071285;28;20074;-72
2021/12/09 03:53:13;;;;;;;10.20;6.82;;;2.80;99.90;;;;;;5070102;28;20048;-72
2021/12/09 03:55:40;;;;;;;13.63;7.15;;;2.80;99.90;;;;;;5069527;28;20106;-72
2021/12/09 03:58:05;;;;;;;13.00;7.53;;;2.70;99.90;;;;;;5052014;28;20029;-72
2021/12/09 04:00:31;;;;;;;13.50;7.85;;;2.70;99.90;;;;;;5069077;28;20396;-72
2021/12/09 04:02:57;;;;;;;11.82;6.68;;;2.60;99.90;;;;;;5067984;28;20043;-72
2021/12/09 04:05:23;;;;;;;11.50;6.82;;;2.70;99.90;;;;;;5071346;28;20039;-72
2021/12/09 04:07:48;;;;;;;10.88;7.05;;;2.70;99.90;;;;;;5054530;28;20040;-72
2021/12/09 04:10:14;;;;;;;15.57;6.78;;;2.80;99.90;;;;;;5052968;28;20072;-72
2021/12/09 04:12:40;;;;;;;13.55;6.70;;;2.80;99.90;;;;;;5070318;28;20070;-72
2021/12/09 04:15:06;;;;;;;13.48;7.32;;;2.90;99.90;;;;;;5069422;28;20028;-72
2021/12/09 04:17:32;;;;;;;11.27;6.50;;;3.00;99.90;;;;;;5051785;28;20040;-72
2021/12/09 04:19:58;;;;;;;11.65;6.85;;;3.00;99.90;;;;;;5053799;28;20028;-72
2021/12/09 04:22:25;;;;;;;12.65;6.55;;;3.00;99.90;;;;;;5069121;28;20047;-72
2021/12/09 04:24:52;;;;;;;12.20;6.78;;;3.00;99.90;;;;;;5071926;28;20045;-72
2021/12/09 04:27:19;;;;;;;15.57;7.68;;;3.00;99.90;;;;;;5067604;28;20051;-72
2021/12/09 04:29:45;;;;;;;14.02;7.50;;;2.80;99.90;;;;;;5051687;28;20051;-72
2021/12/09 04:32:11;;;;;;;13.73;7.60;;;2.90;99.90;;;;;;5053576;28;20040;-72
2021/12/09 04:34:36;;;;;;;13.10;7.28;;;2.90;99.90;;;;;;5069219;28;20579;-72
2021/12/09 04:37:02;;;;;;;14.63;7.10;;;2.90;99.90;;;;;;5069848;28;20493;-72
2021/12/09 04:39:28;;;;;;;10.90;6.70;;;2.90;99.90;;;;;;5053422;28;20040;-72
2021/12/09 04:41:54;;;;;;;15.02;7.57;;;2.80;99.90;;;;;;5066404;28;20488;-72
2021/12/09 04:44:21;;;;;;;11.18;6.97;;;2.70;99.90;;;;;;5052381;28;20032;-72
2021/12/09 04:46:47;;;;;;;13.77;7.32;;;2.70;99.90;;;;;;5054889;28;20558;-73
2021/12/09 04:49:13;;;;;;;12.88;8.02;;;2.90;99.90;;;;;;5053667;28;20035;-72
2021/12/09 04:51:38;;;;;;;14.95;6.70;;;2.90;99.90;;;;;;5066635;28;20045;-72
2021/12/09 04:54:05;;;;;;;10.10;5.57;;;2.90;99.90;;;;;;5070840;28;20044;-72
2021/12/09 04:56:31;;;;;;;13.52;7.13;;;2.90;99.90;;;;;;5050214;28;20047;-72
2021/12/09 04:58:57;;;;;;;14.27;7.22;;;2.90;99.90;;;;;;5083195;28;20033;-72
2021/12/09 05:01:23;;;;;;;12.48;7.43;;;2.80;99.90;;;;;;5082216;28;20546;-72
2021/12/09 05:03:49;;;;;;;12.52;6.75;;;2.80;99.90;;;;;;5068010;28;20074;-72
2021/12/09 05:06:16;;;;;;;13.23;6.82;;;2.90;99.90;;;;;;5054532;28;20033;-72
2021/12/09 05:08:46;;;;;;;14.18;7.45;;;2.90;99.90;;;;;;5066717;28;20374;-72
2021/12/09 05:11:55;;;;;;;13.25;7.15;;;3.00;99.90;;;;;;5053607;28;20202;-73
2021/12/09 05:14:03;;;;;;;12.73;7.03;;;2.90;99.90;;;;;;5061138;28;20052;-72
2021/12/09 05:16:29;;;;;;;12.40;6.68;;;2.90;99.90;;;;;;5053971;28;20487;-72
2021/12/09 05:18:59;;;;;;;12.77;6.55;;;3.00;99.90;;;;;;5069313;28;20071;-73
2021/12/09 05:21:36;;;;;;;14.27;7.45;;;3.00;99.90;;;;;;5053709;28;20497;-73
2021/12/09 05:24:06;;;;;;;13.13;7.40;;;2.90;99.90;;;;;;5052147;28;20489;-72
2021/12/09 05:26:39;;;;;;;12.65;7.00;;;2.80;99.90;;;;;;5052669;28;20427;-73
2021/12/09 05:29:05;;;;;;;12.48;7.00;;;2.90;99.90;;;;;;5068975;28;20037;-73
2021/12/09 05:34:15;;;;;;;14.27;6.97;;;2.80;99.90;;;;;;5069252;28;20041;-73
2021/12/09 05:36:40;;;;;;;12.80;7.15;;;2.90;99.90;;;;;;5072725;28;20029;-72
2021/12/09 05:39:09;;;;;;;11.80;6.53;;;2.80;99.90;;;;;;5056032;28;20040;-73
2021/12/09 05:41:35;;;;;;;15.30;7.25;;;2.90;99.90;;;;;;5055831;28;20119;-73
2021/12/09 05:44:02;;;;;;;15.60;7.78;;;2.80;99.90;;;;;;5056619;28;20082;-73
2021/12/09 05:46:28;;;;;;;11.88;7.20;;;2.70;99.90;;;;;;5071979;28;20453;-73
2021/12/09 05:48:55;;;;;;;13.77;7.50;;;2.70;99.90;;;;;;5071391;28;20122;-73
2021/12/09 05:51:23;;;;;;;12.75;7.03;;;2.70;99.90;;;;;;5056953;28;20032;-72
2021/12/09 05:53:49;;;;;;;14.30;7.13;;;2.80;99.90;;;;;;5069412;28;20041;-73
2021/12/09 05:56:14;;;;;;;14.15;6.45;;;2.80;99.90;;;;;;5056249;28;20036;-73
2021/12/09 05:58:40;;;;;;;9.63;5.10;;;2.80;99.90;;;;;;5071668;28;20107;-73
2021/12/09 06:01:06;;;;;;;12.23;7.10;;;2.80;99.90;;;;;;5053780;28;20563;-73
2021/12/09 06:03:31;;;;;;;14.43;7.10;;;2.80;99.90;;;;;;5071794;28;20044;-73
2021/12/09 06:05:57;;;;;;;12.48;6.90;;;2.80;99.90;;;;;;5053839;28;20032;-73
2021/12/09 06:08:22;;;;;;;13.07;7.40;;;2.70;99.90;;;;;;5071929;28;20107;-73
2021/12/09 06:10:48;;;;;;;12.73;7.32;;;2.60;99.90;;;;;;5074310;28;20037;-73
2021/12/09 06:13:15;;;;;;;11.02;5.35;;;2.50;99.90;;;;;;5070090;28;20037;-73
2021/12/09 06:15:41;;;;;;;16.17;7.40;;;2.50;99.90;;;;;;5057935;28;20435;-73
2021/12/09 06:18:07;;;;;;;14.48;7.00;;;2.60;99.90;;;;;;5069122;28;20040;-73
2021/12/09 06:20:33;;;;;;;15.57;7.90;;;2.70;99.90;;;;;;5057729;28;20058;-73
2021/12/09 06:22:58;;;;;;;14.73;7.90;;;2.70;99.90;;;;;;5054579;28;20029;-73
2021/12/09 06:25:24;;;;;;;13.23;7.85;;;2.80;99.90;;;;;;5074488;28;20174;-73
2021/12/09 06:27:51;;;;;;;12.07;7.15;;;2.70;99.90;;;;;;5069344;28;20041;-73
2021/12/09 06:30:18;;;;;;;14.65;7.40;;;2.60;99.90;;;;;;5056416;28;20044;-73
2021/12/09 06:32:44;;;;;;;17.17;7.45;;;2.60;99.90;;;;;;5070993;28;20105;-73
2021/12/09 06:35:11;;;;;;;14.27;7.57;;;2.50;99.90;;;;;;5071240;28;20481;-73
2021/12/09 06:37:39;;;;;;;13.77;6.43;;;2.50;99.90;;;;;;5069123;28;20033;-73
2021/12/09 06:40:13;;;;;;;13.18;8.10;;;2.60;99.90;;;;;;5073982;28;20025;-73
2021/12/09 06:42:40;;;;;;;12.48;7.40;;;2.50;99.90;;;;;;5053756;28;20029;-73
2021/12/09 06:45:07;;;;;;;13.68;7.05;;;2.50;99.90;;;;;;5050414;28;20083;-73
2021/12/09 06:47:32;;;;;;;15.50;7.90;;;2.60;99.90;;;;;;5068947;28;20094;-73
2021/12/09 06:49:58;;;;;;;11.82;6.90;;;2.50;99.90;;;;;;5049214;28;20048;-73
2021/12/09 06:52:23;;;;;;;16.20;8.15;;;2.50;99.90;;;;;;5071289;28;20515;-72
2021/12/09 06:54:49;;;;;;;14.95;8.35;;;2.50;99.90;;;;;;5055941;28;20037;-73
2021/12/09 06:57:14;;;;;;;12.10;6.95;;;2.40;99.90;;;;;;5056048;28;20114;-73
2021/12/09 06:59:40;;;;;;;13.18;7.85;;;2.40;99.90;;;;;;5054931;28;20029;-73
2021/12/09 07:02:06;;;;;;;12.32;7.50;;;2.50;99.90;;;;;;5054604;28;20120;-73
2021/12/09 07:04:31;;;;;;;13.18;7.00;;;2.50;99.90;;;;;;5054196;28;20503;-72
2021/12/09 07:06:57;;;;;;;15.35;7.88;;;2.40;99.90;;;;;;5068914;28;20036;-73
2021/12/09 07:09:28;;;;;;;15.32;7.10;;;2.40;99.90;;;;;;5071064;28;20827;-73
2021/12/09 07:11:53;;;;;;;11.88;7.05;;;2.40;99.90;;;;;;5069862;28;20451;-73
2021/12/09 07:14:19;;;;;;;15.25;7.53;;;2.30;99.90;;;;;;5070000;28;20503;-72
2021/12/09 07:16:45;;;;;;;16.23;7.60;;;2.40;99.90;;;;;;5072836;28;20412;-73
2021/12/09 07:19:12;;;;;;;13.73;7.35;;;2.40;99.90;;;;;;5054165;28;20389;-73
2021/12/09 07:21:37;;;;;;;13.55;7.18;;;2.50;99.90;;;;;;5054021;28;20040;-73
2021/12/09 07:24:03;;;;;;;13.15;7.63;;;2.40;99.90;;;;;;5055046;28;20173;-72
2021/12/09 07:26:30;;;;;;;13.25;7.32;;;2.40;99.90;;;;;;5071125;28;20079;-72
2021/12/09 07:28:56;;;;;;;14.18;6.38;;;2.30;99.90;;;;;;5055089;28;20033;-73
2021/12/09 07:31:24;;;;;;;15.25;7.88;;;2.40;99.90;;;;;;5071916;28;20036;-72
2021/12/09 07:33:50;;;;;;;14.00;6.63;;;2.40;99.90;;;;;;5066758;28;20133;-73
2021/12/09 07:36:16;;;;;;;11.98;6.78;;;2.30;99.90;;;;;;5052344;28;20037;-73
2021/12/09 07:38:45;;;;;;;11.75;7.05;;;2.40;99.90;;;;;;5067435;28;20035;-73
2021/12/09 07:41:12;;;;;;;14.68;7.80;;;2.40;99.90;;;;;;5071518;28;20036;-73
2021/12/09 07:43:37;;;;;;;13.00;7.10;;;2.30;99.90;;;;;;5070263;28;20492;-73
2021/12/09 07:46:03;;;;;;;15.32;7.78;;;2.20;99.90;;;;;;5070198;28;20040;-73
2021/12/09 07:48:29;;;;;;;15.02;7.60;;;2.20;99.90;;;;;;5071202;28;20477;-73
2021/12/09 07:50:54;;;;;;;13.70;6.82;;;2.20;99.90;;;;;;5052115;28;20094;-73
2021/12/09 07:53:22;;;;;;;13.10;6.68;;;2.30;99.90;;;;;;5071210;28;20507;-73
2021/12/09 07:55:49;;;;;;;13.45;6.90;;;2.30;99.90;;;;;;5053521;28;20037;-73
2021/12/09 07:58:14;;;;;;;16.35;7.22;;;2.20;99.90;;;;;;5071294;28;20083;-73
2021/12/09 08:00:40;;;;;;;15.02;7.78;;;2.20;99.90;;;;;;5070005;28;20457;-73
2021/12/09 08:03:06;;;;;;;12.32;7.50;;;2.20;99.90;;;;;;5054810;28;20570;-73
2021/12/09 08:05:34;;;;;;;13.57;7.60;;;2.20;99.90;;;;;;5067451;28;20543;-73
2021/12/09 08:08:00;;;;;;;12.00;6.75;;;2.20;99.90;;;;;;5053969;28;20914;-73
2021/12/09 08:10:26;;;;;;;16.52;7.53;;;2.20;99.90;;;;;;5054876;28;20074;-73
2021/12/09 08:12:52;;;;;;;13.68;7.05;;;2.20;99.90;;;;;;5053480;28;20064;-73
2021/12/09 08:15:18;;;;;;;14.02;6.25;;;2.30;99.90;;;;;;5070742;28;20192;-73
2021/12/09 08:17:46;;;;;;;13.63;6.82;;;2.40;99.90;;;;;;5067303;28;20117;-73
2021/12/09 08:20:16;;;;;;;14.77;6.90;;;2.40;99.90;;;;;;5070839;28;20036;-73
2021/12/09 08:22:44;;;;;;;14.43;6.43;;;2.40;99.90;;;;;;5053442;28;20390;-73
2021/12/09 08:25:13;;;;;;;13.50;7.63;;;2.40;99.90;;;;;;5050894;28;20174;-72
2021/12/09 08:27:42;;;;;;;13.52;6.93;;;2.40;99.90;;;;;;5054507;28;20036;-73
2021/12/09 08:30:14;;;;;;;13.45;6.50;;;2.30;99.90;;;;;;5052585;28;20032;-72
2021/12/09 08:32:40;;;;;;;11.82;5.38;;;2.30;99.90;;;;;;5071007;28;20033;-73
2021/12/09 08:35:06;;;;;;;13.77;8.30;;;2.30;99.90;;;;;;5065703;28;20052;-72
2021/12/09 08:37:32;;;;;;;18.15;10.38;;;2.30;99.90;;;;;;5052190;28;20370;-73
2021/12/09 08:39:57;;;;;;;16.52;11.25;;;2.50;99.90;;;;;;5067841;28;20036;-72
2021/12/09 08:42:24;;;;;;;21.05;12.52;;;2.40;99.90;;;;;;5070549;28;20036;-72
2021/12/09 08:44:51;;;;;;;17.73;10.07;;;2.50;99.90;;;;;;5069564;28;20037;-72
2021/12/09 08:47:17;;;;;;;17.35;11.40;;;2.50;99.90;;;;;;5054508;28;20083;-72
2021/12/09 08:49:44;;;;;;;14.43;8.68;;;2.40;99.90;;;;;;5068680;28;20477;-72
2021/12/09 08:52:09;;;;;;;15.65;7.18;;;2.20;99.90;;;;;;5070537;28;20045;-72
2021/12/09 08:54:35;;;;;;;14.98;6.82;;;2.20;99.90;;;;;;5051797;28;20101;-73
2021/12/09 08:57:03;;;;;;;14.25;6.95;;;2.30;99.90;;;;;;5053929;28;20035;-73
2021/12/09 08:59:29;;;;;;;12.40;7.40;;;2.20;99.90;;;;;;5065324;28;20063;-73
2021/12/09 09:01:55;;;;;;;18.92;8.48;;;2.30;99.90;;;;;;5051928;28;20044;-72
2021/12/09 09:04:21;;;;;;;13.25;7.07;;;2.30;99.90;;;;;;5053752;28;20048;-73
2021/12/09 09:07:05;;;;;;;13.15;7.40;;;2.30;99.90;;;;;;5069845;28;20086;-72
2021/12/09 09:09:34;;;;;;;14.88;6.68;;;2.30;99.90;;;;;;5053999;28;20036;-72
2021/12/09 09:12:04;;;;;;;15.57;6.82;;;2.40;99.90;;;;;;5053326;28;20032;-73
2021/12/09 09:14:30;;;;;;;14.05;7.40;;;2.50;99.90;;;;;;5054438;28;20051;-73
2021/12/09 09:16:55;;;;;;;12.52;6.72;;;2.40;99.90;;;;;;5068680;28;20033;-73
2021/12/09 09:19:21;;;;;;;12.40;6.00;;;2.50;99.90;;;;;;5067187;28;20039;-73
2021/12/09 09:21:47;;;;;;;14.27;7.10;;;2.50;99.90;;;;;;5067953;28;20042;-73
2021/12/09 09:24:13;;;;;;;14.02;6.13;;;2.60;99.90;;;;;;5052485;28;20037;-75
2021/12/09 09:26:40;;;;;;;14.27;6.20;;;2.50;99.90;;;;;;5054392;28;20039;-75
2021/12/09 09:29:06;;;;;;;12.20;6.53;;;2.60;99.90;;;;;;5053277;28;20040;-75
2021/12/09 09:31:32;;;;;;;14.00;6.60;;;2.60;99.90;;;;;;5068393;28;20516;-75
2021/12/09 09:34:02;;;;;;;12.65;6.07;;;2.60;99.90;;;;;;5068677;28;20040;-75
2021/12/09 09:36:32;;;;;;;16.23;7.53;;;2.80;99.90;;;;;;5067808;28;20036;-75
2021/12/09 09:39:06;;;;;;;14.52;6.60;;;2.80;99.90;;;;;;5053166;28;20063;-74
2021/12/09 09:41:36;;;;;;;11.73;6.30;;;2.80;99.90;;;;;;5070194;28;20481;-73
2021/12/09 09:44:14;;;;;;;15.88;6.75;;;2.80;99.90;;;;;;5051422;28;20497;-73
2021/12/09 09:46:41;;;;;;;11.02;5.72;;;2.90;99.90;;;;;;5052517;28;20036;-73
2021/12/09 09:49:07;;;;;;;13.50;6.60;;;2.90;99.90;;;;;;5070767;28;20067;-73
2021/12/09 09:51:35;;;;;;;15.63;6.95;;;3.00;99.90;;;;;;5054107;28;20488;-73
2021/12/09 09:54:02;;;;;;;11.63;6.00;;;3.00;99.90;;;;;;5071011;28;20051;-73
2021/12/09 09:56:28;;;;;;;11.85;6.00;;;3.20;99.90;;;;;;5054109;28;20505;-73
2021/12/09 09:59:06;;;;;;;10.57;5.43;;;3.20;99.90;;;;;;5071165;28;20439;-73
2021/12/09 10:01:35;;;;;;;15.50;6.35;;;3.30;99.90;;;;;;5070101;28;20388;-73
2021/12/09 10:04:19;;;;;;;13.90;6.45;;;3.40;99.90;;;;;;5054253;28;20072;-73
2021/12/09 10:06:46;;;;;;;12.88;6.03;;;3.40;99.90;;;;;;5071050;28;20408;-73
2021/12/09 10:09:14;;;;;;;13.38;6.57;;;3.50;99.90;;;;;;5054283;28;20416;-73
2021/12/09 10:11:39;;;;;;;11.98;5.47;;;3.50;99.90;;;;;;5070698;28;20032;-73
2021/12/09 10:14:18;;;;;;;12.93;6.03;;;3.50;99.90;;;;;;5070612;28;20040;-73
2021/12/09 10:16:46;;;;;;;11.82;6.03;;;3.60;99.90;;;;;;5069468;28;20039;-73
2021/12/09 10:19:20;;;;;;;12.93;5.65;;;3.70;99.90;;;;;;5071562;28;20032;-73
2021/12/09 10:21:47;;;;;;;12.35;5.60;;;3.80;99.90;;;;;;5074407;28;20032;-73
2021/12/09 10:24:13;;;;;;;13.73;6.55;;;3.90;99.90;;;;;;5057609;28;20052;-73
2021/12/09 10:26:43;;;;;;;14.18;5.78;;;4.10;99.90;;;;;;5057738;28;20032;-73
2021/12/09 10:29:19;;;;;;;12.35;5.82;;;4.20;99.90;;;;;;5057832;28;20052;-73
2021/12/09 10:31:54;;;;;;;12.52;5.75;;;4.20;99.90;;;;;;5057658;28;20040;-73
2021/12/09 10:34:42;;;;;;;13.65;6.40;;;4.30;99.90;;;;;;5057487;28;20037;-72
2021/12/09 10:37:22;;;;;;;11.93;5.97;;;4.30;99.90;;;;;;5057439;28;20044;-72
2021/12/09 10:39:52;;;;;;;14.82;5.80;;;4.30;99.90;;;;;;5057494;28;20046;-72
2021/12/09 10:42:30;;;;;;;10.52;5.53;;;4.50;99.90;;;;;;5073956;28;20086;-72
2021/12/09 10:45:08;;;;;;;12.43;5.82;;;4.50;99.90;;;;;;5053222;28;20097;-72
2021/12/09 10:53:18;;;;;;;13.35;5.47;;;4.60;99.90;;;;;;5066543;28;20056;-72
2021/12/09 10:55:47;;;;;;;12.95;6.05;;;4.60;99.90;;;;;;5057066;28;20037;-72
2021/12/09 10:58:15;;;;;;;13.13;6.40;;;4.50;99.90;;;;;;5070786;28;20477;-72
2021/12/09 11:00:55;;;;;;;13.43;7.07;;;4.40;99.90;;;;;;5053900;28;20111;-72
2021/12/09 11:03:22;;;;;;;11.88;5.35;;;4.40;99.90;;;;;;5073442;28;20492;-72
2021/12/09 11:05:55;;;;;;;12.75;5.65;;;4.50;99.90;;;;;;5056978;28;20036;-72
2021/12/09 11:08:27;;;;;;;15.35;6.65;;;4.50;99.90;;;;;;5073529;28;20071;-72
2021/12/09 11:11:15;;;;;;;12.90;5.43;;;4.50;99.90;;;;;;5073422;28;20059;-71
2021/12/09 11:13:52;;;;;;;11.68;5.57;;;4.50;99.90;;;;;;5064642;28;20036;-72
2021/12/09 11:16:25;;;;;;;13.38;5.60;;;4.50;99.90;;;;;;5055143;28;20093;-72
2021/12/09 11:18:56;;;;;;;11.32;5.68;;;4.60;99.90;;;;;;5071206;28;20036;-72
2021/12/09 11:21:26;;;;;;;11.38;6.05;;;4.50;99.90;;;;;;5054350;28;20043;-72
2021/12/09 11:24:00;;;;;;;13.13;6.93;;;4.60;99.90;;;;;;5052833;28;20055;-72
2021/12/09 11:27:10;;;;;;;11.38;5.88;;;4.50;99.90;;;;;;5073379;28;20397;-72
2021/12/09 11:29:33;;;;;;;15.32;6.38;;;4.50;99.90;;;;;;5066742;28;20040;-72
2021/12/09 11:35:35;;;;;;;15.60;6.28;;;4.50;99.90;;;;;;5070067;28;19923;-72
2021/12/09 11:40:12;;;;;;;16.23;6.65;;;4.40;99.90;;;;;;5071504;28;20063;-72
2021/12/09 11:42:52;;;;;;;16.85;7.35;;;4.50;99.90;;;;;;5070446;28;20044;-72
2021/12/09 11:45:23;;;;;;;16.13;7.88;;;4.40;99.90;;;;;;5069192;28;20122;-72
2021/12/09 11:47:51;;;;;;;17.70;7.30;;;4.40;99.90;;;;;;5056170;28;20036;-72
2021/12/09 11:50:20;;;;;;;17.30;7.95;;;4.30;99.90;;;;;;5071101;28;20040;-72
2021/12/09 11:52:48;;;;;;;17.83;8.80;;;4.40;99.90;;;;;;5072459;28;20052;-72
2021/12/09 11:55:18;;;;;;;16.98;7.57;;;4.40;99.90;;;;;;5053879;28;20051;-73
2021/12/09 11:57:56;;;;;;;17.92;8.05;;;4.50;99.90;;;;;;5070877;28;20112;-72
2021/12/09 12:07:05;;;;;;;12.88;6.68;;;4.60;99.90;;;;;;5070324;28;20040;-72
2021/12/09 12:29:50;;;;;;;16.02;6.95;;;4.60;99.90;;;;;;5067356;28;20141;-72
2021/12/09 12:40:35;;;;;;;15.88;7.32;;;4.50;99.90;;;;;;5070593;28;20094;-72
2021/12/09 12:43:13;;;;;;;12.73;6.07;;;4.60;99.90;;;;;;5054025;28;20032;-72
2021/12/09 12:49:17;;;;;;;14.10;7.13;;;4.60;99.90;;;;;;5066974;28;20052;-72
2021/12/09 12:52:09;;;;;;;22.98;8.18;;;4.60;99.90;;;;;;5064210;28;20093;-72
2021/12/09 12:54:19;;;;;;;14.82;7.88;;;4.50;99.90;;;;;;5062167;28;20057;-72
2021/12/09 12:56:53;;;;;;;17.02;9.00;;;4.50;99.90;;;;;;5070394;28;20049;-72
2021/12/09 12:59:22;;;;;;;15.35;8.05;;;4.50;99.90;;;;;;5054784;28;20033;-72
2021/12/09 13:02:03;;;;;;;15.80;7.80;;;4.40;99.90;;;;;;5069780;28;20123;-72
2021/12/09 13:07:39;;;;;;;15.77;8.38;;;4.40;99.90;;;;;;5069424;28;20044;-72
2021/12/09 13:10:31;;;;;;;15.80;8.32;;;4.50;99.90;;;;;;5070870;28;20396;-72
2021/12/09 13:16:35;;;;;;;17.42;8.55;;;4.50;99.90;;;;;;5071034;28;20124;-72
2021/12/09 13:19:29;;;;;;;16.30;8.23;;;4.40;99.90;;;;;;5069181;28;20110;-72
2021/12/09 13:21:58;;;;;;;16.95;8.90;;;4.40;99.90;;;;;;5053690;28;20032;-73
2021/12/09 13:35:41;;;;;;;18.73;9.55;;;4.60;99.90;;;;;;5067935;28;20056;-72
2021/12/09 13:38:29;;;;;;;17.45;8.73;;;4.40;99.90;;;;;;5071180;28;20048;-72
2021/12/09 13:46:48;;;;;;;16.77;8.50;;;4.50;99.90;;;;;;5084145;28;20485;-77
2021/12/09 13:50:00;;;;;;;19.75;7.85;;;4.50;99.90;;;;;;5068483;28;20477;-76
2021/12/09 13:54:07;;;;;;;20.88;9.73;;;4.60;99.90;;;;;;5065331;28;20479;-75
2021/12/09 13:54:56;;;;;;;20.35;9.55;;;4.60;99.90;;;;;;5071622;28;20080;-75
2021/12/09 13:57:52;;;;;;;22.38;9.95;;;4.60;99.90;;;;;;5057226;28;20068;-72
2021/12/09 14:00:27;;;;;;;18.90;9.32;;;4.60;99.90;;;;;;5066687;28;20051;-72
2021/12/09 14:02:55;;;;;;;17.52;9.60;;;4.60;99.90;;;;;;5056110;28;20137;-72
2021/12/09 14:05:21;;;;;;;18.90;10.30;;;4.50;99.90;;;;;;5054096;28;20138;-72
2021/12/09 14:07:58;;;;;;;20.92;9.93;;;4.60;99.90;;;;;;5057178;28;20032;-71
2021/12/09 14:10:28;;;;;;;16.95;9.23;;;4.60;99.90;;;;;;5056632;28;20042;-72
2021/12/09 14:13:02;;;;;;;20.13;10.85;;;4.60;99.90;;;;;;5069304;28;20501;-72